sensor_id;sensor_type;location;lat;lon;timestamp;pressure;altitude;pressure_sealevel;temperature;humidity
24762;BME280;12865;51.934;10.330;2023-11-21T00:00:33;98497.44;;;7.47;100.00
24762;BME280;12865;51.934;10.330;2023-11-21T00:03:18;98502.34;;;7.42;100.00
24762;BME280;12865;51.934;10.330;2023-11-21T00:06:04;98490.19;;;7.39;100.00
24762;BME280;12865;51.934;10.330;2023-11-21T00:08:54;98498.13;;;7.39;100.00
24762;BME280;12865;51.934;10.330;2023-11-21T00:11:39;98496.31;;;7.40;100.00
24762;BME280;12865;51.934;10.330;2023-11-21T00:14:25;98499.41;;;7.35;100.00
24762;BME280;12865;51.934;10.330;2023-11-21T00:17:11;98494.66;;;7.48;100.00
24762;BME280;12865;51.934;10.330;2023-11-21T00:19:56;98491.44;;;7.45;100.00
24762;BME280;12865;51.934;10.330;2023-11-21T00:22:42;98490.19;;;7.49;100.00
24762;BME280;12865;51.934;10.330;2023-11-21T00:25:28;98501.94;;;7.56;100.00
24762;BME280;12865;51.934;10.330;2023-11-21T00:28:13;98498.84;;;7.51;100.00
24762;BME280;12865;51.934;10.330;2023-11-21T00:30:59;98499.13;;;7.48;100.00
24762;BME280;12865;51.934;10.330;2023-11-21T00:33:45;98503.88;;;7.54;100.00
24762;BME280;12865;51.934;10.330;2023-11-21T00:36:33;98508.34;;;7.54;100.00
24762;BME280;12865;51.934;10.330;2023-11-21T00:39:19;98515.88;;;7.58;100.00
24762;BME280;12865;51.934;10.330;2023-11-21T00:42:05;98513.09;;;7.60;100.00
24762;BME280;12865;51.934;10.330;2023-11-21T00:44:51;98510.56;;;7.58;100.00
24762;BME280;12865;51.934;10.330;2023-11-21T00:47:36;98516.84;;;7.57;100.00
24762;BME280;12865;51.934;10.330;2023-11-21T00:50:24;98523.28;;;7.55;100.00
24762;BME280;12865;51.934;10.330;2023-11-21T00:53:09;98517.13;;;7.54;100.00
24762;BME280;12865;51.934;10.330;2023-11-21T00:55:56;98521.19;;;7.48;100.00
24762;BME280;12865;51.934;10.330;2023-11-21T00:58:43;98523.25;;;7.45;100.00
24762;BME280;12865;51.934;10.330;2023-11-21T01:01:31;98525.19;;;7.43;100.00
24762;BME280;12865;51.934;10.330;2023-11-21T01:04:17;98532.63;;;7.49;100.00
24762;BME280;12865;51.934;10.330;2023-11-21T01:07:03;98527.03;;;7.42;100.00
24762;BME280;12865;51.934;10.330;2023-11-21T01:09:51;98533.72;;;7.46;100.00
24762;BME280;12865;51.934;10.330;2023-11-21T01:12:37;98533.31;;;7.51;100.00
24762;BME280;12865;51.934;10.330;2023-11-21T01:15:23;98528.56;;;7.45;100.00
24762;BME280;12865;51.934;10.330;2023-11-21T01:18:11;98535.25;;;7.39;100.00
24762;BME280;12865;51.934;10.330;2023-11-21T01:20:57;98534.66;;;7.36;100.00
24762;BME280;12865;51.934;10.330;2023-11-21T01:23:42;98527.13;;;7.31;100.00
24762;BME280;12865;51.934;10.330;2023-11-21T01:26:28;98533.03;;;7.35;100.00
24762;BME280;12865;51.934;10.330;2023-11-21T01:29:14;98525.19;;;7.33;100.00
24762;BME280;12865;51.934;10.330;2023-11-21T01:32:00;98535.94;;;7.32;100.00
24762;BME280;12865;51.934;10.330;2023-11-21T01:34:47;98531.59;;;7.31;100.00
24762;BME280;12865;51.934;10.330;2023-11-21T01:37:33;98535.09;;;7.31;100.00
24762;BME280;12865;51.934;10.330;2023-11-21T01:40:19;98542.91;;;7.33;100.00
24762;BME280;12865;51.934;10.330;2023-11-21T01:43:04;98546.28;;;7.35;100.00
24762;BME280;12865;51.934;10.330;2023-11-21T01:45:50;98545.44;;;7.44;100.00
24762;BME280;12865;51.934;10.330;2023-11-21T01:48:36;98549.22;;;7.51;100.00
24762;BME280;12865;51.934;10.330;2023-11-21T01:51:23;98551.88;;;7.51;100.00
24762;BME280;12865;51.934;10.330;2023-11-21T01:54:08;98549.22;;;7.51;100.00
24762;BME280;12865;51.934;10.330;2023-11-21T01:56:54;98555.25;;;7.53;100.00
24762;BME280;12865;51.934;10.330;2023-11-21T01:59:41;98555.94;;;7.55;100.00
24762;BME280;12865;51.934;10.330;2023-11-21T02:02:27;98560.13;;;7.48;100.00
24762;BME280;12865;51.934;10.330;2023-11-21T02:05:14;98554.69;;;7.49;100.00
24762;BME280;12865;51.934;10.330;2023-11-21T02:08:00;98558.16;;;7.50;100.00
24762;BME280;12865;51.934;10.330;2023-11-21T02:10:46;98554.41;;;7.53;100.00
24762;BME280;12865;51.934;10.330;2023-11-21T02:13:33;98563.47;;;7.60;100.00
24762;BME280;12865;51.934;10.330;2023-11-21T02:16:18;98561.50;;;7.52;100.00
24762;BME280;12865;51.934;10.330;2023-11-21T02:19:07;98560.28;;;7.56;100.00
24762;BME280;12865;51.934;10.330;2023-11-21T02:21:56;98570.03;;;7.56;100.00
24762;BME280;12865;51.934;10.330;2023-11-21T02:24:43;98569.63;;;7.60;100.00
24762;BME280;12865;51.934;10.330;2023-11-21T02:27:29;98565.59;;;7.66;100.00
24762;BME280;12865;51.934;10.330;2023-11-21T02:30:15;98564.47;;;7.68;100.00
24762;BME280;12865;51.934;10.330;2023-11-21T02:33:01;98570.88;;;7.66;100.00
24762;BME280;12865;51.934;10.330;2023-11-21T02:35:47;98565.16;;;7.61;100.00
24762;BME280;12865;51.934;10.330;2023-11-21T02:38:33;98566.56;;;7.65;100.00
24762;BME280;12865;51.934;10.330;2023-11-21T02:41:19;98573.97;;;7.61;100.00
24762;BME280;12865;51.934;10.330;2023-11-21T02:44:08;98566.16;;;7.69;100.00
24762;BME280;12865;51.934;10.330;2023-11-21T02:46:53;98560.84;;;7.69;100.00
24762;BME280;12865;51.934;10.330;2023-11-21T02:49:39;98566.84;;;7.71;100.00
24762;BME280;12865;51.934;10.330;2023-11-21T02:52:26;98563.63;;;7.68;100.00
24762;BME280;12865;51.934;10.330;2023-11-21T02:55:11;98562.09;;;7.65;100.00
24762;BME280;12865;51.934;10.330;2023-11-21T02:57:57;98566.41;;;7.66;100.00
24762;BME280;12865;51.934;10.330;2023-11-21T03:00:43;98575.81;;;7.70;100.00
24762;BME280;12865;51.934;10.330;2023-11-21T03:03:28;98578.16;;;7.73;100.00
24762;BME280;12865;51.934;10.330;2023-11-21T03:06:14;98580.41;;;7.78;100.00
24762;BME280;12865;51.934;10.330;2023-11-21T03:09:00;98584.03;;;7.77;100.00
24762;BME280;12865;51.934;10.330;2023-11-21T03:11:46;98584.88;;;7.77;100.00
24762;BME280;12865;51.934;10.330;2023-11-21T03:14:31;98580.72;;;7.84;100.00
24762;BME280;12865;51.934;10.330;2023-11-21T03:17:17;98580.69;;;7.75;100.00
24762;BME280;12865;51.934;10.330;2023-11-21T03:20:03;98589.06;;;7.80;100.00
24762;BME280;12865;51.934;10.330;2023-11-21T03:22:49;98587.13;;;7.82;100.00
24762;BME280;12865;51.934;10.330;2023-11-21T03:25:35;98583.50;;;7.83;100.00
24762;BME280;12865;51.934;10.330;2023-11-21T03:28:20;98591.44;;;7.83;100.00
24762;BME280;12865;51.934;10.330;2023-11-21T03:31:06;98595.78;;;7.84;100.00
24762;BME280;12865;51.934;10.330;2023-11-21T03:33:52;98600.94;;;7.85;100.00
24762;BME280;12865;51.934;10.330;2023-11-21T03:36:39;98594.25;;;7.91;100.00
24762;BME280;12865;51.934;10.330;2023-11-21T03:39:24;98600.25;;;8.03;100.00
24762;BME280;12865;51.934;10.330;2023-11-21T03:42:11;98604.16;;;7.89;100.00
24762;BME280;12865;51.934;10.330;2023-11-21T03:44:56;98610.31;;;7.89;100.00
24762;BME280;12865;51.934;10.330;2023-11-21T03:47:42;98617.13;;;7.92;100.00
24762;BME280;12865;51.934;10.330;2023-11-21T03:50:31;98612.00;;;7.91;100.00
24762;BME280;12865;51.934;10.330;2023-11-21T03:53:17;98613.34;;;7.85;100.00
24762;BME280;12865;51.934;10.330;2023-11-21T03:56:03;98617.56;;;7.87;100.00
24762;BME280;12865;51.934;10.330;2023-11-21T03:58:49;98617.28;;;7.81;100.00
24762;BME280;12865;51.934;10.330;2023-11-21T04:01:34;98617.00;;;7.84;100.00
24762;BME280;12865;51.934;10.330;2023-11-21T04:04:20;98614.19;;;7.85;100.00
24762;BME280;12865;51.934;10.330;2023-11-21T04:07:06;98621.31;;;7.85;100.00
24762;BME280;12865;51.934;10.330;2023-11-21T04:09:51;98625.53;;;7.87;100.00
24762;BME280;12865;51.934;10.330;2023-11-21T04:12:37;98631.41;;;7.91;100.00
24762;BME280;12865;51.934;10.330;2023-11-21T04:15:23;98635.88;;;7.91;100.00
24762;BME280;12865;51.934;10.330;2023-11-21T04:18:09;98629.84;;;7.88;100.00
24762;BME280;12865;51.934;10.330;2023-11-21T04:20:54;98636.00;;;7.89;100.00
24762;BME280;12865;51.934;10.330;2023-11-21T04:23:40;98635.03;;;7.90;100.00
24762;BME280;12865;51.934;10.330;2023-11-21T04:26:26;98640.22;;;7.92;100.00
24762;BME280;12865;51.934;10.330;2023-11-21T04:29:11;98642.03;;;7.91;100.00
24762;BME280;12865;51.934;10.330;2023-11-21T04:31:57;98646.50;;;7.91;100.00
24762;BME280;12865;51.934;10.330;2023-11-21T04:34:43;98642.03;;;7.91;100.00
24762;BME280;12865;51.934;10.330;2023-11-21T04:37:28;98648.00;;;7.93;100.00
24762;BME280;12865;51.934;10.330;2023-11-21T04:40:14;98651.63;;;7.92;100.00
24762;BME280;12865;51.934;10.330;2023-11-21T04:43:00;98649.28;;;7.89;100.00
24762;BME280;12865;51.934;10.330;2023-11-21T04:45:45;98646.75;;;7.87;100.00
24762;BME280;12865;51.934;10.330;2023-11-21T04:48:31;98651.09;;;7.88;100.00
24762;BME280;12865;51.934;10.330;2023-11-21T04:51:16;98655.00;;;7.84;100.00
24762;BME280;12865;51.934;10.330;2023-11-21T04:54:03;98662.25;;;7.82;100.00
24762;BME280;12865;51.934;10.330;2023-11-21T04:56:48;98658.34;;;7.86;100.00
24762;BME280;12865;51.934;10.330;2023-11-21T04:59:34;98669.25;;;7.83;100.00
24762;BME280;12865;51.934;10.330;2023-11-21T05:02:20;98678.19;;;7.82;100.00
24762;BME280;12865;51.934;10.330;2023-11-21T05:05:07;98677.75;;;7.77;100.00
24762;BME280;12865;51.934;10.330;2023-11-21T05:07:53;98680.97;;;7.81;100.00
24762;BME280;12865;51.934;10.330;2023-11-21T05:10:41;98690.72;;;7.80;100.00
24762;BME280;12865;51.934;10.330;2023-11-21T05:13:27;98699.28;;;7.84;100.00
24762;BME280;12865;51.934;10.330;2023-11-21T05:16:13;98693.97;;;7.84;100.00
24762;BME280;12865;51.934;10.330;2023-11-21T05:18:59;98691.59;;;7.91;100.00
24762;BME280;12865;51.934;10.330;2023-11-21T05:21:46;98700.81;;;7.86;100.00
24762;BME280;12865;51.934;10.330;2023-11-21T05:24:32;98697.31;;;7.86;100.00
24762;BME280;12865;51.934;10.330;2023-11-21T05:27:18;98703.59;;;7.85;100.00
24762;BME280;12865;51.934;10.330;2023-11-21T05:30:04;98704.84;;;7.81;100.00
24762;BME280;12865;51.934;10.330;2023-11-21T05:32:50;98703.03;;;7.81;100.00
24762;BME280;12865;51.934;10.330;2023-11-21T05:35:36;98709.44;;;7.79;100.00
24762;BME280;12865;51.934;10.330;2023-11-21T05:38:22;98709.44;;;7.79;100.00
24762;BME280;12865;51.934;10.330;2023-11-21T05:41:07;98716.16;;;7.83;100.00
24762;BME280;12865;51.934;10.330;2023-11-21T05:43:56;98716.44;;;7.80;100.00
24762;BME280;12865;51.934;10.330;2023-11-21T05:46:42;98713.22;;;7.86;100.00
24762;BME280;12865;51.934;10.330;2023-11-21T05:49:28;98721.47;;;7.83;100.00
24762;BME280;12865;51.934;10.330;2023-11-21T05:52:15;98724.66;;;7.77;100.00
24762;BME280;12865;51.934;10.330;2023-11-21T05:55:01;98726.47;;;7.76;100.00
24762;BME280;12865;51.934;10.330;2023-11-21T05:57:46;98722.84;;;7.77;100.00
24762;BME280;12865;51.934;10.330;2023-11-21T06:00:32;98721.19;;;7.76;100.00
24762;BME280;12865;51.934;10.330;2023-11-21T06:03:18;98723.69;;;7.78;100.00
24762;BME280;12865;51.934;10.330;2023-11-21T06:06:04;98723.41;;;7.81;100.00
24762;BME280;12865;51.934;10.330;2023-11-21T06:08:50;98729.81;;;7.78;100.00
24762;BME280;12865;51.934;10.330;2023-11-21T06:11:36;98728.16;;;7.77;100.00
24762;BME280;12865;51.934;10.330;2023-11-21T06:14:21;98730.66;;;7.79;100.00
24762;BME280;12865;51.934;10.330;2023-11-21T06:17:07;98735.53;;;7.74;100.00
24762;BME280;12865;51.934;10.330;2023-11-21T06:19:52;98735.13;;;7.78;100.00
24762;BME280;12865;51.934;10.330;2023-11-21T06:22:40;98736.38;;;7.74;100.00
24762;BME280;12865;51.934;10.330;2023-11-21T06:25:26;98746.28;;;7.72;100.00
24762;BME280;12865;51.934;10.330;2023-11-21T06:28:12;98741.69;;;7.74;100.00
24762;BME280;12865;51.934;10.330;2023-11-21T06:30:58;98747.72;;;7.76;100.00
24762;BME280;12865;51.934;10.330;2023-11-21T06:33:44;98758.13;;;7.68;100.00
24762;BME280;12865;51.934;10.330;2023-11-21T06:36:29;98760.66;;;7.70;100.00
24762;BME280;12865;51.934;10.330;2023-11-21T06:39:15;98759.53;;;7.72;100.00
24762;BME280;12865;51.934;10.330;2023-11-21T06:42:02;98764.28;;;7.69;100.00
24762;BME280;12865;51.934;10.330;2023-11-21T06:44:50;98769.72;;;7.67;100.00
24762;BME280;12865;51.934;10.330;2023-11-21T06:47:38;98775.16;;;7.66;100.00
24762;BME280;12865;51.934;10.330;2023-11-21T06:50:23;98778.41;;;7.69;100.00
24762;BME280;12865;51.934;10.330;2023-11-21T06:53:09;98785.63;;;7.67;100.00
24762;BME280;12865;51.934;10.330;2023-11-21T06:55:55;98775.28;;;7.64;100.00
24762;BME280;12865;51.934;10.330;2023-11-21T06:58:41;98779.38;;;7.68;100.00
24762;BME280;12865;51.934;10.330;2023-11-21T07:01:26;98789.00;;;7.69;100.00
24762;BME280;12865;51.934;10.330;2023-11-21T07:04:12;98789.13;;;7.68;100.00
24762;BME280;12865;51.934;10.330;2023-11-21T07:06:57;98795.81;;;7.62;100.00
24762;BME280;12865;51.934;10.330;2023-11-21T07:09:43;98798.34;;;7.64;100.00
24762;BME280;12865;51.934;10.330;2023-11-21T07:12:32;98797.50;;;7.63;100.00
24762;BME280;12865;51.934;10.330;2023-11-21T07:15:17;98804.63;;;7.63;100.00
24762;BME280;12865;51.934;10.330;2023-11-21T07:18:04;98810.47;;;7.66;100.00
24762;BME280;12865;51.934;10.330;2023-11-21T07:20:53;98815.78;;;7.66;100.00
24762;BME280;12865;51.934;10.330;2023-11-21T07:23:38;98812.41;;;7.64;100.00
24762;BME280;12865;51.934;10.330;2023-11-21T07:26:24;98812.28;;;7.66;100.00
24762;BME280;12865;51.934;10.330;2023-11-21T07:29:11;98824.88;;;7.64;100.00
24762;BME280;12865;51.934;10.330;2023-11-21T07:31:57;98826.69;;;7.63;100.00
24762;BME280;12865;51.934;10.330;2023-11-21T07:34:42;98833.78;;;7.63;100.00
24762;BME280;12865;51.934;10.330;2023-11-21T07:37:28;98832.56;;;7.67;100.00
24762;BME280;12865;51.934;10.330;2023-11-21T07:40:14;98829.91;;;7.67;100.00
24762;BME280;12865;51.934;10.330;2023-11-21T07:43:00;98846.53;;;7.69;100.00
24762;BME280;12865;51.934;10.330;2023-11-21T07:45:45;98844.97;;;7.66;100.00
24762;BME280;12865;51.934;10.330;2023-11-21T07:48:31;98845.09;;;7.65;100.00
24762;BME280;12865;51.934;10.330;2023-11-21T07:51:17;98843.44;;;7.64;100.00
24762;BME280;12865;51.934;10.330;2023-11-21T07:54:03;98848.22;;;7.70;100.00
24762;BME280;12865;51.934;10.330;2023-11-21T07:56:48;98854.38;;;7.70;100.00
24762;BME280;12865;51.934;10.330;2023-11-21T07:59:34;98864.59;;;7.75;100.00
24762;BME280;12865;51.934;10.330;2023-11-21T08:02:20;98864.47;;;7.76;100.00
24762;BME280;12865;51.934;10.330;2023-11-21T08:05:06;98861.81;;;7.76;100.00
24762;BME280;12865;51.934;10.330;2023-11-21T08:07:52;98870.72;;;7.75;100.00
24762;BME280;12865;51.934;10.330;2023-11-21T08:10:38;98877.84;;;7.75;100.00
24762;BME280;12865;51.934;10.330;2023-11-21T08:13:25;98876.59;;;7.79;100.00
24762;BME280;12865;51.934;10.330;2023-11-21T08:16:11;98895.06;;;7.80;100.00
24762;BME280;12865;51.934;10.330;2023-11-21T08:18:57;98892.00;;;7.85;100.00
24762;BME280;12865;51.934;10.330;2023-11-21T08:21:43;98895.78;;;7.82;100.00
24762;BME280;12865;51.934;10.330;2023-11-21T08:24:30;98906.31;;;7.94;100.00
24762;BME280;12865;51.934;10.330;2023-11-21T08:27:15;98906.31;;;7.94;100.00
24762;BME280;12865;51.934;10.330;2023-11-21T08:30:03;98924.56;;;7.87;100.00
24762;BME280;12865;51.934;10.330;2023-11-21T08:32:48;98918.69;;;7.83;100.00
24762;BME280;12865;51.934;10.330;2023-11-21T08:35:35;98934.53;;;7.74;100.00
24762;BME280;12865;51.934;10.330;2023-11-21T08:38:21;98941.09;;;7.38;100.00
24762;BME280;12865;51.934;10.330;2023-11-21T08:41:07;98935.97;;;7.25;100.00
24762;BME280;12865;51.934;10.330;2023-11-21T08:43:53;98945.25;;;7.20;100.00
24762;BME280;12865;51.934;10.330;2023-11-21T08:46:40;98956.88;;;7.07;100.00
24762;BME280;12865;51.934;10.330;2023-11-21T08:49:27;98952.31;;;6.98;100.00
24762;BME280;12865;51.934;10.330;2023-11-21T08:52:14;98965.78;;;7.06;100.00
24762;BME280;12865;51.934;10.330;2023-11-21T08:55:00;98960.59;;;6.94;100.00
24762;BME280;12865;51.934;10.330;2023-11-21T08:57:53;98967.00;;;6.91;100.00
24762;BME280;12865;51.934;10.330;2023-11-21T09:00:39;98976.38;;;6.95;100.00
24762;BME280;12865;51.934;10.330;2023-11-21T09:03:25;98976.50;;;7.05;100.00
24762;BME280;12865;51.934;10.330;2023-11-21T09:06:11;98982.91;;;6.91;100.00
24762;BME280;12865;51.934;10.330;2023-11-21T09:08:57;98997.47;;;6.97;100.00
24762;BME280;12865;51.934;10.330;2023-11-21T09:11:43;98988.09;;;6.82;100.00
24762;BME280;12865;51.934;10.330;2023-11-21T09:14:29;98998.00;;;6.80;100.00
24762;BME280;12865;51.934;10.330;2023-11-21T09:17:15;98997.38;;;6.76;100.00
24762;BME280;12865;51.934;10.330;2023-11-21T09:20:02;99004.47;;;6.98;100.00
24762;BME280;12865;51.934;10.330;2023-11-21T09:22:50;99016.41;;;6.92;100.00
24762;BME280;12865;51.934;10.330;2023-11-21T09:25:36;99017.00;;;6.74;100.00
24762;BME280;12865;51.934;10.330;2023-11-21T09:28:22;99024.72;;;6.77;100.00
24762;BME280;12865;51.934;10.330;2023-11-21T09:31:08;99037.47;;;6.72;100.00
24762;BME280;12865;51.934;10.330;2023-11-21T09:33:54;99033.63;;;6.64;100.00
24762;BME280;12865;51.934;10.330;2023-11-21T09:36:40;99034.09;;;6.58;100.00
24762;BME280;12865;51.934;10.330;2023-11-21T09:39:26;99035.63;;;6.39;100.00
24762;BME280;12865;51.934;10.330;2023-11-21T09:42:36;99040.00;;;6.51;100.00
24762;BME280;12865;51.934;10.330;2023-11-21T09:45:28;99049.22;;;6.45;100.00
24762;BME280;12865;51.934;10.330;2023-11-21T09:48:15;99049.59;;;6.41;100.00
24762;BME280;12865;51.934;10.330;2023-11-21T09:51:02;99047.69;;;6.43;100.00
24762;BME280;12865;51.934;10.330;2023-11-21T09:53:50;99050.22;;;6.44;100.00
24762;BME280;12865;51.934;10.330;2023-11-21T09:56:38;99067.31;;;6.51;100.00
24762;BME280;12865;51.934;10.330;2023-11-21T09:59:24;99069.13;;;6.51;100.00
24762;BME280;12865;51.934;10.330;2023-11-21T10:02:10;99059.97;;;6.55;100.00
24762;BME280;12865;51.934;10.330;2023-11-21T10:04:59;99068.75;;;6.55;100.00
24762;BME280;12865;51.934;10.330;2023-11-21T10:07:45;99066.59;;;6.60;100.00
24762;BME280;12865;51.934;10.330;2023-11-21T10:10:32;99073.69;;;6.60;100.00
24762;BME280;12865;51.934;10.330;2023-11-21T10:13:18;99070.72;;;6.64;100.00
24762;BME280;12865;51.934;10.330;2023-11-21T10:16:05;99078.16;;;6.59;100.00
24762;BME280;12865;51.934;10.330;2023-11-21T10:18:53;99082.13;;;6.54;100.00
24762;BME280;12865;51.934;10.330;2023-11-21T10:21:40;99086.44;;;6.55;100.00
24762;BME280;12865;51.934;10.330;2023-11-21T10:24:26;99083.44;;;6.59;100.00
24762;BME280;12865;51.934;10.330;2023-11-21T10:27:12;99093.81;;;6.74;100.00
24762;BME280;12865;51.934;10.330;2023-11-21T10:30:01;99091.16;;;6.74;100.00
24762;BME280;12865;51.934;10.330;2023-11-21T10:32:47;99091.31;;;6.72;100.00
24762;BME280;12865;51.934;10.330;2023-11-21T10:38:42;99114.78;;;6.65;100.00
24762;BME280;12865;51.934;10.330;2023-11-21T10:41:29;99122.00;;;6.75;100.00
24762;BME280;12865;51.934;10.330;2023-11-21T10:44:15;99130.06;;;6.62;100.00
24762;BME280;12865;51.934;10.330;2023-11-21T10:47:09;99131.25;;;6.58;100.00
24762;BME280;12865;51.934;10.330;2023-11-21T10:49:57;99127.66;;;6.70;100.00
24762;BME280;12865;51.934;10.330;2023-11-21T10:52:44;99118.38;;;6.76;100.00
24762;BME280;12865;51.934;10.330;2023-11-21T10:55:33;99122.63;;;6.78;100.00
24762;BME280;12865;51.934;10.330;2023-11-21T10:58:19;99125.97;;;6.69;100.00
24762;BME280;12865;51.934;10.330;2023-11-21T11:01:06;99124.53;;;6.65;100.00
24762;BME280;12865;51.934;10.330;2023-11-21T11:03:53;99128.16;;;6.75;100.00
24762;BME280;12865;51.934;10.330;2023-11-21T11:06:42;99132.84;;;6.83;100.00
24762;BME280;12865;51.934;10.330;2023-11-21T11:09:30;99141.66;;;6.83;100.00
24762;BME280;12865;51.934;10.330;2023-11-21T11:12:19;99148.59;;;6.73;100.00
24762;BME280;12865;51.934;10.330;2023-11-21T11:15:05;99148.00;;;6.69;100.00
24762;BME280;12865;51.934;10.330;2023-11-21T11:17:51;99149.84;;;6.91;100.00
24762;BME280;12865;51.934;10.330;2023-11-21T11:20:38;99149.84;;;6.91;100.00
24762;BME280;12865;51.934;10.330;2023-11-21T11:23:53;99152.13;;;6.96;100.00
24762;BME280;12865;51.934;10.330;2023-11-21T11:26:52;99160.94;;;6.85;100.00
24762;BME280;12865;51.934;10.330;2023-11-21T11:33:06;99166.34;;;6.84;100.00
24762;BME280;12865;51.934;10.330;2023-11-21T11:36:02;99163.69;;;6.73;100.00
24762;BME280;12865;51.934;10.330;2023-11-21T11:38:49;99167.41;;;6.70;100.00
24762;BME280;12865;51.934;10.330;2023-11-21T11:41:35;99171.66;;;6.95;100.00
24762;BME280;12865;51.934;10.330;2023-11-21T11:44:47;99178.16;;;7.02;100.00
24762;BME280;12865;51.934;10.330;2023-11-21T11:47:36;99187.69;;;6.93;100.00
24762;BME280;12865;51.934;10.330;2023-11-21T11:50:24;99181.41;;;6.83;100.00
24762;BME280;12865;51.934;10.330;2023-11-21T11:53:15;99186.59;;;6.85;100.00
24762;BME280;12865;51.934;10.330;2023-11-21T11:56:31;99188.75;;;6.80;100.00
24762;BME280;12865;51.934;10.330;2023-11-21T11:59:19;99184.41;;;6.79;100.00
24762;BME280;12865;51.934;10.330;2023-11-21T12:02:05;99191.25;;;6.70;100.00
24762;BME280;12865;51.934;10.330;2023-11-21T12:04:55;99193.91;;;6.81;100.00
24762;BME280;12865;51.934;10.330;2023-11-21T12:10:31;99198.03;;;6.85;100.00
24762;BME280;12865;51.934;10.330;2023-11-21T12:13:17;99193.88;;;6.70;100.00
24762;BME280;12865;51.934;10.330;2023-11-21T12:16:04;99199.69;;;6.75;100.00
24762;BME280;12865;51.934;10.330;2023-11-21T12:18:49;99202.22;;;6.77;100.00
24762;BME280;12865;51.934;10.330;2023-11-21T12:21:36;99206.56;;;6.78;100.00
24762;BME280;12865;51.934;10.330;2023-11-21T12:24:22;99207.03;;;6.83;100.00
24762;BME280;12865;51.934;10.330;2023-11-21T12:27:09;99213.81;;;6.87;100.00
24762;BME280;12865;51.934;10.330;2023-11-21T12:29:54;99213.09;;;6.96;100.00
24762;BME280;12865;51.934;10.330;2023-11-21T12:32:42;99227.56;;;6.92;100.00
24762;BME280;12865;51.934;10.330;2023-11-21T12:35:30;99221.94;;;7.07;100.00
24762;BME280;12865;51.934;10.330;2023-11-21T12:38:16;99226.75;;;7.14;100.00
24762;BME280;12865;51.934;10.330;2023-11-21T12:41:04;99235.88;;;6.98;100.00
24762;BME280;12865;51.934;10.330;2023-11-21T12:43:52;99236.94;;;6.96;100.00
24762;BME280;12865;51.934;10.330;2023-11-21T12:46:41;99238.63;;;6.86;100.00
24762;BME280;12865;51.934;10.330;2023-11-21T12:49:27;99239.13;;;7.02;100.00
24762;BME280;12865;51.934;10.330;2023-11-21T12:52:13;99242.81;;;6.88;100.00
24762;BME280;12865;51.934;10.330;2023-11-21T12:55:00;99248.88;;;6.90;100.00
24762;BME280;12865;51.934;10.330;2023-11-21T12:57:45;99246.81;;;6.94;100.00
24762;BME280;12865;51.934;10.330;2023-11-21T13:00:37;99253.75;;;6.73;100.00
24762;BME280;12865;51.934;10.330;2023-11-21T13:03:25;99256.16;;;6.76;100.00
24762;BME280;12865;51.934;10.330;2023-11-21T13:06:12;99248.94;;;6.78;100.00
24762;BME280;12865;51.934;10.330;2023-11-21T13:08:58;99249.28;;;6.73;100.00
24762;BME280;12865;51.934;10.330;2023-11-21T13:11:44;99255.41;;;6.74;100.00
24762;BME280;12865;51.934;10.330;2023-11-21T13:14:31;99257.09;;;6.63;100.00
24762;BME280;12865;51.934;10.330;2023-11-21T13:17:17;99258.44;;;6.69;100.00
24762;BME280;12865;51.934;10.330;2023-11-21T13:20:04;99255.78;;;6.69;100.00
24762;BME280;12865;51.934;10.330;2023-11-21T13:22:54;99258.63;;;6.66;100.00
24762;BME280;12865;51.934;10.330;2023-11-21T13:25:40;99257.94;;;6.64;100.00
24762;BME280;12865;51.934;10.330;2023-11-21T13:28:34;99271.06;;;6.65;100.00
24762;BME280;12865;51.934;10.330;2023-11-21T13:31:20;99269.53;;;6.50;100.00
24762;BME280;12865;51.934;10.330;2023-11-21T13:34:08;99274.50;;;6.55;100.00
24762;BME280;12865;51.934;10.330;2023-11-21T13:36:54;99271.38;;;6.61;100.00
24762;BME280;12865;51.934;10.330;2023-11-21T13:39:44;99277.31;;;6.64;100.00
24762;BME280;12865;51.934;10.330;2023-11-21T13:42:32;99281.88;;;6.62;100.00
24762;BME280;12865;51.934;10.330;2023-11-21T13:45:18;99289.09;;;6.60;100.00
24762;BME280;12865;51.934;10.330;2023-11-21T13:48:06;99296.47;;;6.68;100.00
24762;BME280;12865;51.934;10.330;2023-11-21T13:50:55;99296.91;;;6.62;100.00
24762;BME280;12865;51.934;10.330;2023-11-21T13:53:44;99301.47;;;6.60;100.00
24762;BME280;12865;51.934;10.330;2023-11-21T13:56:33;99299.53;;;6.51;100.00
24762;BME280;12865;51.934;10.330;2023-11-21T13:59:18;99304.28;;;6.46;100.00
24762;BME280;12865;51.934;10.330;2023-11-21T14:02:10;99307.94;;;6.45;100.00
24762;BME280;12865;51.934;10.330;2023-11-21T14:05:06;99320.19;;;6.69;100.00
24762;BME280;12865;51.934;10.330;2023-11-21T14:07:55;99318.78;;;6.53;100.00
24762;BME280;12865;51.934;10.330;2023-11-21T14:10:47;99335.91;;;6.60;100.00
24762;BME280;12865;51.934;10.330;2023-11-21T14:13:38;99335.34;;;6.44;100.00
24762;BME280;12865;51.934;10.330;2023-11-21T14:16:31;99340.09;;;6.51;100.00
24762;BME280;12865;51.934;10.330;2023-11-21T14:19:17;99337.94;;;6.56;100.00
24762;BME280;12865;51.934;10.330;2023-11-21T14:22:03;99344.75;;;6.48;100.00
24762;BME280;12865;51.934;10.330;2023-11-21T14:24:48;99353.59;;;6.36;100.00
24762;BME280;12865;51.934;10.330;2023-11-21T14:27:36;99360.84;;;6.57;100.00
24762;BME280;12865;51.934;10.330;2023-11-21T14:30:22;99372.63;;;6.41;100.00
24762;BME280;12865;51.934;10.330;2023-11-21T14:33:08;99374.00;;;6.46;100.00
24762;BME280;12865;51.934;10.330;2023-11-21T14:35:56;99375.06;;;6.44;100.00
24762;BME280;12865;51.934;10.330;2023-11-21T14:38:43;99377.81;;;6.42;100.00
24762;BME280;12865;51.934;10.330;2023-11-21T14:41:29;99386.22;;;6.36;100.00